Time,TemperatureF,DewpointF,PressureIn,WindDirection,WindDirectionDegrees,WindSpeedMPH,WindSpeedGustMPH,Humidity,HourlyPrecipIn,Conditions,Clouds,dailyrainin,SolarRadiationWatts/m^2,SoftwareType,DateUTC
2013-03-23 00:22:00,14.0,11.0,-100.00,NNW,338,2.0,6.0,87,0.00,,,0.00,0.000000,,2013-03-23 06:22:00,
2013-03-23 00:32:00,14.0,11.0,-100.00,NNW,338,2.0,6.0,87,0.00,,,0.00,0.000000,,2013-03-23 06:32:00,
2013-03-23 00:42:00,14.0,11.0,-100.00,NNW,338,2.0,6.0,87,0.00,,,0.00,0.000000,,2013-03-23 06:42:00,
2013-03-23 00:52:00,14.0,11.0,-100.00,NNW,338,2.0,6.0,87,0.00,,,0.00,0.000000,,2013-03-23 06:52:00,
2013-03-23 01:22:00,12.0,8.0,-100.00,North,355,2.0,6.0,84,0.00,,,0.00,0.000000,,2013-03-23 07:22:00,
2013-03-23 01:32:00,12.0,8.0,-100.00,North,355,2.0,6.0,84,0.00,,,0.00,0.000000,,2013-03-23 07:32:00,
2013-03-23 01:42:00,12.0,8.0,-100.00,North,355,2.0,6.0,84,0.00,,,0.00,0.000000,,2013-03-23 07:42:00,
2013-03-23 01:52:00,12.0,8.0,-100.00,North,355,2.0,6.0,84,0.00,,,0.00,0.000000,,2013-03-23 07:52:00,
2013-03-23 02:13:00,11.0,5.0,-100.00,NW,323,3.0,9.0,76,0.00,,,0.00,0.000000,,2013-03-23 08:13:00,
2013-03-23 02:22:00,11.0,5.0,-100.00,NW,323,3.0,9.0,76,0.00,,,0.00,0.000000,,2013-03-23 08:22:00,
2013-03-23 02:32:00,11.0,5.0,-100.00,NW,323,3.0,9.0,76,0.00,,,0.00,0.000000,,2013-03-23 08:32:00,
2013-03-23 02:42:00,11.0,5.0,-100.00,NW,323,3.0,9.0,76,0.00,,,0.00,0.000000,,2013-03-23 08:42:00,
2013-03-23 02:52:00,11.0,5.0,-100.00,NW,323,3.0,9.0,76,0.00,,,0.00,0.000000,,2013-03-23 08:52:00,
2013-03-23 03:12:00,10.0,5.0,-100.00,SW,221,4.0,10.0,79,0.00,,,0.00,0.000000,,2013-03-23 09:12:00,
2013-03-23 03:22:00,10.0,5.0,-100.00,SW,221,4.0,10.0,79,0.00,,,0.00,0.000000,,2013-03-23 09:22:00,
2013-03-23 03:33:00,10.0,5.0,-100.00,SW,221,4.0,10.0,79,0.00,,,0.00,0.000000,,2013-03-23 09:33:00,
2013-03-23 03:42:00,10.0,5.0,-100.00,SW,221,4.0,10.0,79,0.00,,,0.00,0.000000,,2013-03-23 09:42:00,
2013-03-23 03:53:00,10.0,5.0,-100.00,SW,221,4.0,10.0,79,0.00,,,0.00,0.000000,,2013-03-23 09:53:00,
2013-03-23 04:13:00,10.0,6.0,-100.00,North,357,2.0,4.0,83,0.00,,,0.00,0.000000,,2013-03-23 10:13:00,
2013-03-23 04:23:00,10.0,6.0,-100.00,North,357,2.0,4.0,83,0.00,,,0.00,0.000000,,2013-03-23 10:23:00,
2013-03-23 04:33:00,10.0,6.0,-100.00,North,357,2.0,4.0,83,0.00,,,0.00,0.000000,,2013-03-23 10:33:00,
2013-03-23 04:42:00,10.0,6.0,-100.00,North,357,2.0,4.0,83,0.00,,,0.00,0.000000,,2013-03-23 10:42:00,
2013-03-23 04:52:00,10.0,6.0,-100.00,North,357,2.0,4.0,83,0.00,,,0.00,0.000000,,2013-03-23 10:52:00,
2013-03-23 05:22:00,8.0,3.0,-100.00,ENE,73,2.0,6.0,80,0.00,,,0.00,0.000000,,2013-03-23 11:22:00,
2013-03-23 05:32:00,8.0,3.0,-100.00,ENE,73,2.0,6.0,80,0.00,,,0.00,0.000000,,2013-03-23 11:32:00,
2013-03-23 05:42:00,8.0,3.0,-100.00,ENE,73,2.0,6.0,80,0.00,,,0.00,0.000000,,2013-03-23 11:42:00,
2013-03-23 05:51:00,8.0,3.0,-100.00,ENE,73,2.0,6.0,80,0.00,,,0.00,0.000000,,2013-03-23 11:51:00,
2013-03-23 06:13:00,7.0,2.0,-100.00,NNW,333,3.0,9.0,78,0.00,,,0.00,0.000000,,2013-03-23 12:13:00,
2013-03-23 06:22:00,7.0,2.0,-100.00,NNW,333,3.0,9.0,78,0.00,,,0.00,0.000000,,2013-03-23 12:22:00,
2013-03-23 06:33:00,7.0,2.0,-100.00,NNW,333,3.0,9.0,78,0.00,,,0.00,0.000000,,2013-03-23 12:33:00,
2013-03-23 06:42:00,7.0,2.0,-100.00,NNW,333,3.0,9.0,78,0.00,,,0.00,0.000000,,2013-03-23 12:42:00,
2013-03-23 06:52:00,7.0,2.0,-100.00,NNW,333,3.0,9.0,78,0.00,,,0.00,0.000000,,2013-03-23 12:52:00,
2013-03-23 07:23:00,5.0,-3.0,-100.00,NNE,23,6.0,18.0,70,0.00,,,0.00,0.000000,,2013-03-23 13:23:00,
2013-03-23 07:33:00,5.0,-3.0,-100.00,NNE,23,6.0,18.0,70,0.00,,,0.00,0.000000,,2013-03-23 13:33:00,
2013-03-23 07:42:00,5.0,-3.0,-100.00,NNE,23,6.0,18.0,70,0.00,,,0.00,0.000000,,2013-03-23 13:42:00,
2013-03-23 07:52:00,5.0,-3.0,-100.00,NNE,23,6.0,18.0,70,0.00,,,0.00,0.000000,,2013-03-23 13:52:00,
2013-03-23 08:12:00,5.0,-4.0,-100.00,NE,43,7.0,20.0,66,0.00,,,0.00,4.000000,,2013-03-23 14:12:00,
2013-03-23 08:22:00,5.0,-4.0,-100.00,NE,43,7.0,20.0,66,0.00,,,0.00,4.000000,,2013-03-23 14:22:00,
2013-03-23 08:32:00,5.0,-4.0,-100.00,NE,43,7.0,20.0,66,0.00,,,0.00,4.000000,,2013-03-23 14:32:00,
2013-03-23 08:42:00,5.0,-4.0,-100.00,NE,43,7.0,20.0,66,0.00,,,0.00,4.000000,,2013-03-23 14:42:00,
2013-03-23 08:52:00,5.0,-4.0,-100.00,NE,43,7.0,20.0,66,0.00,,,0.00,4.000000,,2013-03-23 14:52:00,
2013-03-23 09:22:00,6.0,-5.0,-100.00,ENE,65,6.0,17.0,61,0.00,,,0.00,29.000000,,2013-03-23 15:22:00,
2013-03-23 09:33:00,6.0,-5.0,-100.00,ENE,65,6.0,17.0,61,0.00,,,0.00,29.000000,,2013-03-23 15:33:00,
2013-03-23 09:43:00,6.0,-5.0,-100.00,ENE,65,6.0,17.0,61,0.00,,,0.00,29.000000,,2013-03-23 15:43:00,
2013-03-23 09:52:00,6.0,-5.0,-100.00,ENE,65,6.0,17.0,61,0.00,,,0.00,29.000000,,2013-03-23 15:52:00,
2013-03-23 10:13:00,7.0,0.0,-100.00,West,278,4.0,17.0,72,0.00,,,0.00,44.000000,,2013-03-23 16:13:00,
2013-03-23 10:23:00,7.0,0.0,-100.00,West,278,4.0,17.0,72,0.00,,,0.00,44.000000,,2013-03-23 16:23:00,
2013-03-23 10:33:00,7.0,0.0,-100.00,West,278,4.0,17.0,72,0.00,,,0.00,44.000000,,2013-03-23 16:33:00,
2013-03-23 10:43:00,7.0,0.0,-100.00,West,278,4.0,17.0,72,0.00,,,0.00,44.000000,,2013-03-23 16:43:00,
2013-03-23 10:53:00,7.0,0.0,-100.00,West,278,4.0,17.0,72,0.00,,,0.00,44.000000,,2013-03-23 16:53:00,
2013-03-23 11:22:00,9.0,-1.0,-100.00,NNE,29,5.0,14.0,63,0.00,,,0.00,62.000000,,2013-03-23 17:22:00,
2013-03-23 11:33:00,9.0,-1.0,-100.00,NNE,29,5.0,14.0,63,0.00,,,0.00,62.000000,,2013-03-23 17:33:00,
2013-03-23 11:42:00,9.0,-1.0,-100.00,NNE,29,5.0,14.0,63,0.00,,,0.00,62.000000,,2013-03-23 17:42:00,
2013-03-23 11:52:00,9.0,-1.0,-100.00,NNE,29,5.0,14.0,63,0.00,,,0.00,62.000000,,2013-03-23 17:52:00,
2013-03-23 12:22:00,10.0,-3.0,-100.00,North,2,5.0,13.0,55,0.00,,,0.00,94.000000,,2013-03-23 18:22:00,
2013-03-23 12:32:00,10.0,-3.0,-100.00,North,2,5.0,13.0,55,0.00,,,0.00,94.000000,,2013-03-23 18:32:00,
2013-03-23 12:42:00,10.0,-3.0,-100.00,North,2,5.0,13.0,55,0.00,,,0.00,94.000000,,2013-03-23 18:42:00,
2013-03-23 12:52:00,10.0,-3.0,-100.00,North,2,5.0,13.0,55,0.00,,,0.00,94.000000,,2013-03-23 18:52:00,
2013-03-23 13:12:00,9.0,-3.0,-100.00,North,351,5.0,14.0,56,0.00,,,0.00,95.000000,,2013-03-23 19:12:00,
2013-03-23 13:22:00,9.0,-3.0,-100.00,North,351,5.0,14.0,56,0.00,,,0.00,95.000000,,2013-03-23 19:22:00,
2013-03-23 13:32:00,9.0,-3.0,-100.00,North,351,5.0,14.0,56,0.00,,,0.00,95.000000,,2013-03-23 19:32:00,
2013-03-23 13:42:00,9.0,-3.0,-100.00,North,351,5.0,14.0,56,0.00,,,0.00,95.000000,,2013-03-23 19:42:00,
2013-03-23 13:52:00,9.0,-3.0,-100.00,North,351,5.0,14.0,56,0.00,,,0.00,95.000000,,2013-03-23 19:52:00,
2013-03-23 14:22:00,11.0,-1.0,-100.00,WNW,295,4.0,11.0,58,0.00,,,0.00,111.000000,,2013-03-23 20:22:00,
2013-03-23 14:32:00,11.0,-1.0,-100.00,WNW,295,4.0,11.0,58,0.00,,,0.00,111.000000,,2013-03-23 20:32:00,
2013-03-23 14:42:00,11.0,-1.0,-100.00,WNW,295,4.0,11.0,58,0.00,,,0.00,111.000000,,2013-03-23 20:42:00,
2013-03-23 14:52:00,11.0,-1.0,-100.00,WNW,295,4.0,11.0,58,0.00,,,0.00,111.000000,,2013-03-23 20:52:00,
2013-03-23 15:12:00,14.0,0.0,-100.00,NE,48,3.0,10.0,54,0.00,,,0.00,135.000000,,2013-03-23 21:12:00,
2013-03-23 15:22:00,14.0,0.0,-100.00,NE,48,3.0,10.0,54,0.00,,,0.00,135.000000,,2013-03-23 21:22:00,
2013-03-23 15:33:00,14.0,0.0,-100.00,NE,48,3.0,10.0,54,0.00,,,0.00,135.000000,,2013-03-23 21:33:00,
2013-03-23 15:43:00,14.0,0.0,-100.00,NE,48,3.0,10.0,54,0.00,,,0.00,135.000000,,2013-03-23 21:43:00,
2013-03-23 15:53:00,14.0,0.0,-100.00,NE,48,3.0,10.0,54,0.00,,,0.00,135.000000,,2013-03-23 21:53:00,
2013-03-23 16:13:00,17.0,2.0,-100.00,NE,36,4.0,12.0,51,0.00,,,0.00,158.000000,,2013-03-23 22:13:00,
2013-03-23 16:23:00,17.0,2.0,-100.00,NE,36,4.0,12.0,51,0.00,,,0.00,158.000000,,2013-03-23 22:23:00,
2013-03-23 16:33:00,17.0,2.0,-100.00,NE,36,4.0,12.0,51,0.00,,,0.00,158.000000,,2013-03-23 22:33:00,
2013-03-23 16:42:00,17.0,2.0,-100.00,NE,36,4.0,12.0,51,0.00,,,0.00,158.000000,,2013-03-23 22:42:00,
2013-03-23 16:52:00,17.0,2.0,-100.00,NE,36,4.0,12.0,51,0.00,,,0.00,158.000000,,2013-03-23 22:52:00,
2013-03-23 17:13:00,19.0,1.0,-100.00,NNE,22,4.0,15.0,45,0.00,,,0.00,184.000000,,2013-03-23 23:13:00,
2013-03-23 17:23:00,19.0,1.0,-100.00,NNE,22,4.0,15.0,45,0.00,,,0.00,184.000000,,2013-03-23 23:23:00,
2013-03-23 17:33:00,19.0,1.0,-100.00,NNE,22,4.0,15.0,45,0.00,,,0.00,184.000000,,2013-03-23 23:33:00,
2013-03-23 17:42:00,19.0,1.0,-100.00,NNE,22,4.0,15.0,45,0.00,,,0.00,184.000000,,2013-03-23 23:42:00,
2013-03-23 17:52:00,19.0,1.0,-100.00,NNE,22,4.0,15.0,45,0.00,,,0.00,184.000000,,2013-03-23 23:52:00,
2013-03-23 18:22:00,11.0,-4.0,-100.00,NNW,346,3.0,16.0,50,0.00,,,0.00,107.000000,,2013-03-24 00:22:00,
2013-03-23 18:32:00,11.0,-4.0,-100.00,NNW,346,3.0,16.0,50,0.00,,,0.00,107.000000,,2013-03-24 00:32:00,
2013-03-23 18:42:00,11.0,-4.0,-100.00,NNW,346,3.0,16.0,50,0.00,,,0.00,107.000000,,2013-03-24 00:42:00,
2013-03-23 18:52:00,11.0,-4.0,-100.00,NNW,346,3.0,16.0,50,0.00,,,0.00,107.000000,,2013-03-24 00:52:00,
2013-03-23 19:12:00,5.0,-4.0,-100.00,NW,325,2.0,6.0,66,0.00,,,0.00,24.000000,,2013-03-24 01:12:00,
2013-03-23 19:22:00,5.0,-4.0,-100.00,NW,325,2.0,6.0,66,0.00,,,0.00,24.000000,,2013-03-24 01:22:00,
2013-03-23 19:32:00,5.0,-4.0,-100.00,NW,325,2.0,6.0,66,0.00,,,0.00,24.000000,,2013-03-24 01:32:00,
2013-03-23 19:42:00,5.0,-4.0,-100.00,NW,325,2.0,6.0,66,0.00,,,0.00,24.000000,,2013-03-24 01:42:00,
2013-03-23 19:52:00,5.0,-4.0,-100.00,NW,325,2.0,6.0,66,0.00,,,0.00,24.000000,,2013-03-24 01:52:00,
2013-03-23 20:22:00,2.0,-3.0,-100.00,NNW,348,1.0,4.0,78,0.00,,,0.00,1.000000,,2013-03-24 02:22:00,
2013-03-23 20:32:00,2.0,-3.0,-100.00,NNW,348,1.0,4.0,78,0.00,,,0.00,1.000000,,2013-03-24 02:32:00,
2013-03-23 20:42:00,2.0,-3.0,-100.00,NNW,348,1.0,4.0,78,0.00,,,0.00,1.000000,,2013-03-24 02:42:00,
2013-03-23 20:52:00,2.0,-3.0,-100.00,NNW,348,1.0,4.0,78,0.00,,,0.00,1.000000,,2013-03-24 02:52:00,
2013-03-23 21:12:00,1.0,-4.0,-100.00,NNW,346,1.0,4.0,77,0.00,,,0.00,0.000000,,2013-03-24 03:12:00,
2013-03-23 21:22:00,1.0,-4.0,-100.00,NNW,346,1.0,4.0,77,0.00,,,0.00,0.000000,,2013-03-24 03:22:00,
2013-03-23 21:33:00,1.0,-4.0,-100.00,NNW,346,1.0,4.0,77,0.00,,,0.00,0.000000,,2013-03-24 03:33:00,
2013-03-23 21:42:00,1.0,-4.0,-100.00,NNW,346,1.0,4.0,77,0.00,,,0.00,0.000000,,2013-03-24 03:42:00,
2013-03-23 21:52:00,1.0,-4.0,-100.00,NNW,346,1.0,4.0,77,0.00,,,0.00,0.000000,,2013-03-24 03:52:00,
2013-03-23 22:13:00,0.0,-5.0,-100.00,NNW,346,1.0,5.0,77,0.00,,,0.00,0.000000,,2013-03-24 04:13:00,
2013-03-23 22:22:00,0.0,-5.0,-100.00,NNW,346,1.0,5.0,77,0.00,,,0.00,0.000000,,2013-03-24 04:22:00,
2013-03-23 22:33:00,0.0,-5.0,-100.00,NNW,346,1.0,5.0,77,0.00,,,0.00,0.000000,,2013-03-24 04:33:00,
2013-03-23 22:42:00,0.0,-5.0,-100.00,NNW,346,1.0,5.0,77,0.00,,,0.00,0.000000,,2013-03-24 04:42:00,
2013-03-23 22:52:00,0.0,-5.0,-100.00,NNW,346,1.0,5.0,77,0.00,,,0.00,0.000000,,2013-03-24 04:52:00,
2013-03-23 23:22:00,0.0,-6.0,-100.00,NNE,12,2.0,4.0,76,0.00,,,0.00,0.000000,,2013-03-24 05:22:00,
2013-03-23 23:32:00,0.0,-6.0,-100.00,NNE,12,2.0,4.0,76,0.00,,,0.00,0.000000,,2013-03-24 05:32:00,
2013-03-23 23:42:00,0.0,-6.0,-100.00,NNE,12,2.0,4.0,76,0.00,,,0.00,0.000000,,2013-03-24 05:42:00,
2013-03-23 23:52:00,0.0,-6.0,-100.00,NNE,12,2.0,4.0,76,0.00,,,0.00,0.000000,,2013-03-24 05:52:00,